Time;durP1;ratioP1;P1;durP2;ratioP2;P2;SDS_P1;SDS_P2;PMS_P1;PMS_P2;Temp;Humidity;BMP_temperature;BMP_pressure;BME280_temperature;BME280_humidity;BME280_pressure;Samples;Min_cycle;Max_cycle;Signal;HPM_P1;HPM_P2
2021/10/24 00:00:07;;;;;;;9.18;2.50;;;;;;;0.38;nan;103066.72;5061708;28;20035;-48
2021/10/24 00:02:32;;;;;;;10.70;4.05;;;;;;;0.36;nan;103076.53;5059697;28;20367;-49
2021/10/24 00:04:58;;;;;;;10.75;3.38;;;;;;;0.31;nan;103074.28;5059868;28;20031;-49
2021/10/24 00:07:23;;;;;;;14.65;4.15;;;;;;;0.27;nan;103080.78;5058850;28;20655;-50
2021/10/24 00:09:52;;;;;;;13.55;5.03;;;;;;;0.26;nan;103085.19;5057924;28;20024;-48
2021/10/24 00:12:18;;;;;;;10.45;3.22;;;;;;;0.30;nan;103088.44;5059085;28;20477;-48
2021/10/24 00:14:44;;;;;;;12.60;3.88;;;;;;;0.29;nan;103084.13;5057381;28;20032;-48
2021/10/24 00:17:10;;;;;;;8.32;3.15;;;;;;;0.25;nan;103078.25;5058684;28;20034;-48
2021/10/24 00:19:36;;;;;;;10.77;3.28;;;;;;;0.25;nan;103082.69;5059664;28;20032;-50
2021/10/24 00:22:03;;;;;;;8.80;3.10;;;;;;;0.19;nan;103081.41;5056614;28;20032;-48
2021/10/24 00:24:29;;;;;;;10.02;3.08;;;;;;;0.17;nan;103085.09;5058188;28;20119;-48
2021/10/24 00:26:55;;;;;;;12.40;3.42;;;;;;;0.11;nan;103088.22;5058387;28;20451;-48
2021/10/24 00:29:20;;;;;;;8.27;3.35;;;;;;;0.11;nan;103086.44;5059384;28;20036;-49
2021/10/24 00:31:46;;;;;;;7.65;2.63;;;;;;;0.11;nan;103083.78;5060080;28;20066;-48
2021/10/24 00:34:11;;;;;;;11.65;3.78;;;;;;;0.07;nan;103078.88;5057895;28;20288;-49
2021/10/24 00:36:37;;;;;;;8.70;3.17;;;;;;;-0.01;nan;103082.13;5059524;28;20676;-50
2021/10/24 00:39:03;;;;;;;8.27;3.35;;;;;;;-0.04;nan;103096.38;5063380;28;20028;-51
2021/10/24 00:41:31;;;;;;;9.15;4.22;;;;;;;0.00;nan;103097.00;5065679;28;20039;-50
2021/10/24 00:43:57;;;;;;;8.13;3.97;;;;;;;0.01;nan;103088.13;5062874;28;20502;-49
2021/10/24 00:46:22;;;;;;;11.27;4.10;;;;;;;0.01;nan;103084.66;5062559;28;20039;-51
2021/10/24 00:48:48;;;;;;;10.52;3.75;;;;;;;0.01;nan;103087.28;5062994;28;20482;-49
2021/10/24 00:51:13;;;;;;;8.63;3.35;;;;;;;-0.03;nan;103087.50;5063684;28;20034;-50
2021/10/24 00:53:39;;;;;;;4.13;2.72;;;;;;;-0.06;nan;103092.19;5063455;28;20024;-47
2021/10/24 00:56:06;;;;;;;9.20;3.25;;;;;;;-0.04;nan;103090.28;5062174;28;20078;-48
2021/10/24 00:58:33;;;;;;;10.20;3.10;;;;;;;-0.09;nan;103088.00;5050792;28;20024;-48
2021/10/24 01:00:59;;;;;;;10.63;4.13;;;;;;;-0.14;nan;103084.06;5064308;28;20039;-48
2021/10/24 01:03:24;;;;;;;10.40;3.70;;;;;;;-0.21;nan;103085.50;5063517;28;20028;-48
2021/10/24 01:05:50;;;;;;;10.20;3.42;;;;;;;-0.23;nan;103084.78;5061641;28;20013;-48
2021/10/24 01:08:16;;;;;;;10.05;4.13;;;;;;;-0.20;nan;103090.63;5061795;28;20024;-48
2021/10/24 01:10:41;;;;;;;14.85;3.95;;;;;;;-0.13;nan;103091.00;5059662;28;20120;-48
2021/10/24 01:13:07;;;;;;;9.10;3.47;;;;;;;-0.05;nan;103093.88;5051240;28;20468;-48
2021/10/24 01:15:33;;;;;;;12.95;4.72;;;;;;;0.00;nan;103083.81;5061776;28;20020;-51
2021/10/24 01:17:59;;;;;;;14.20;3.50;;;;;;;-0.06;nan;103089.56;5043987;28;20635;-48
2021/10/24 01:20:26;;;;;;;10.70;4.05;;;;;;;-0.08;nan;103092.31;5061380;28;20048;-49
2021/10/24 01:22:52;;;;;;;13.68;4.38;;;;;;;-0.12;nan;103087.41;5045042;28;20405;-48
2021/10/24 01:25:19;;;;;;;7.63;3.58;;;;;;;-0.01;nan;103084.75;5062712;28;20067;-47
2021/10/24 01:27:46;;;;;;;10.80;3.65;;;;;;;-0.13;nan;103093.66;5060507;28;20021;-48
2021/10/24 01:30:12;;;;;;;12.65;4.50;;;;;;;-0.09;nan;103089.81;5061970;28;20111;-48
2021/10/24 01:32:37;;;;;;;11.68;3.95;;;;;;;-0.15;nan;103087.66;5060935;28;20116;-51
2021/10/24 01:35:05;;;;;;;16.75;6.57;;;;;;;-0.17;nan;103086.94;5060392;28;20030;-51
2021/10/24 01:37:36;;;;;;;12.80;4.47;;;;;;;-0.14;nan;103087.53;5062078;28;20020;-48
2021/10/24 01:40:05;;;;;;;8.82;4.03;;;;;;;-0.04;nan;103079.72;5064170;28;20028;-49
2021/10/24 01:42:32;;;;;;;9.13;3.80;;;;;;;-0.09;nan;103087.16;5063803;28;20021;-48
2021/10/24 01:44:57;;;;;;;11.65;4.10;;;;;;;-0.05;nan;103083.31;5060765;28;20394;-48
2021/10/24 01:47:23;;;;;;;15.57;3.08;;;;;;;-0.02;nan;103080.44;5060767;28;20120;-48
2021/10/24 01:49:49;;;;;;;16.95;4.72;;;;;;;-0.06;nan;103085.13;5059655;28;20035;-48
2021/10/24 01:52:16;;;;;;;9.25;3.22;;;;;;;-0.08;nan;103087.03;5042130;28;20375;-49
2021/10/24 01:54:42;;;;;;;10.05;3.50;;;;;;;-0.15;nan;103083.22;5058873;28;20029;-49
2021/10/24 01:57:07;;;;;;;12.18;5.50;;;;;;;-0.19;nan;103078.28;5061946;28;20032;-48
2021/10/24 01:59:33;;;;;;;11.43;4.60;;;;;;;-0.24;nan;103080.47;5063437;28;20033;-49
2021/10/24 02:01:58;;;;;;;14.98;5.20;;;;;;;-0.19;nan;103084.41;5064662;28;20021;-49
2021/10/24 02:04:24;;;;;;;11.60;4.72;;;;;;;-0.14;nan;103073.53;5061624;28;20063;-48
2021/10/24 02:06:49;;;;;;;12.45;4.30;;;;;;;0.02;nan;103071.34;5063036;28;20171;-48
2021/10/24 02:09:15;;;;;;;12.10;4.30;;;;;;;0.05;nan;103073.75;5048260;28;20395;-48
2021/10/24 02:11:41;;;;;;;14.32;4.65;;;;;;;0.00;nan;103068.00;5061080;28;20175;-48
2021/10/24 02:14:06;;;;;;;16.83;4.18;;;;;;;-0.03;nan;103068.22;5061600;28;20398;-47
2021/10/24 02:16:32;;;;;;;14.45;6.50;;;;;;;-0.08;nan;103067.75;5064122;28;20020;-48
2021/10/24 02:18:57;;;;;;;12.57;5.10;;;;;;;-0.08;nan;103070.41;5061147;28;20029;-49
2021/10/24 02:21:22;;;;;;;15.05;6.07;;;;;;;-0.13;nan;103075.19;5062659;28;20081;-48
2021/10/24 02:23:48;;;;;;;18.10;6.88;;;;;;;-0.07;nan;103069.44;5062404;28;20024;-49
2021/10/24 02:26:13;;;;;;;13.77;5.25;;;;;;;0.03;nan;103074.84;5062954;28;20020;-47
2021/10/24 02:28:39;;;;;;;16.95;7.70;;;;;;;0.11;nan;103075.03;5061871;28;20036;-48
2021/10/24 02:31:04;;;;;;;15.93;6.95;;;;;;;0.31;nan;103079.56;5059440;28;20352;-48
2021/10/24 02:33:30;;;;;;;23.58;7.90;;;;;;;0.42;nan;103066.34;5062371;28;20091;-48
2021/10/24 02:35:55;;;;;;;19.40;7.63;;;;;;;0.53;nan;103068.94;5062697;28;20370;-48
2021/10/24 02:38:21;;;;;;;21.17;8.68;;;;;;;0.58;nan;103065.94;5061052;28;20098;-49
2021/10/24 02:40:46;;;;;;;22.67;7.35;;;;;;;0.68;nan;103071.28;5063397;28;20031;-47
2021/10/24 02:43:12;;;;;;;18.15;8.27;;;;;;;0.74;nan;103068.16;5059208;28;20025;-50
2021/10/24 02:45:38;;;;;;;21.20;9.52;;;;;;;0.80;nan;103065.00;5062118;28;20031;-48
2021/10/24 02:48:04;;;;;;;19.20;7.47;;;;;;;0.88;nan;103073.09;5060465;28;20078;-49
2021/10/24 02:50:30;;;;;;;24.27;7.45;;;;;;;0.92;nan;103066.63;5063731;28;20032;-48
2021/10/24 02:52:55;;;;;;;15.32;6.15;;;;;;;0.84;nan;103072.53;5061112;28;20039;-48
2021/10/24 02:55:21;;;;;;;10.70;4.40;;;;;;;0.77;nan;103076.66;5044624;28;20440;-48
2021/10/24 02:57:47;;;;;;;13.40;5.55;;;;;;;0.65;nan;103064.47;5060241;28;20066;-48
2021/10/24 03:00:13;;;;;;;16.35;5.40;;;;;;;0.67;nan;103073.09;5058574;28;20487;-47
2021/10/24 03:02:39;;;;;;;12.07;5.05;;;;;;;0.64;nan;103072.50;5059032;28;20017;-49
2021/10/24 03:05:07;;;;;;;16.25;7.38;;;;;;;0.62;nan;103075.28;5063356;28;20074;-48
2021/10/24 03:07:32;;;;;;;12.80;5.05;;;;;;;0.51;nan;103080.56;5059998;28;20082;-50
2021/10/24 03:09:58;;;;;;;15.80;6.03;;;;;;;0.65;nan;103072.38;5059841;28;20036;-49
2021/10/24 03:12:23;;;;;;;13.30;5.32;;;;;;;0.75;nan;103075.94;5061016;28;20482;-48
2021/10/24 03:14:49;;;;;;;13.60;5.68;;;;;;;0.83;nan;103078.78;5060832;28;20016;-48
2021/10/24 03:17:14;;;;;;;16.38;5.32;;;;;;;0.96;nan;103083.88;5057605;28;20024;-47
2021/10/24 03:19:41;;;;;;;20.77;7.53;;;;;;;0.98;nan;103083.75;5059728;28;20032;-49
2021/10/24 03:22:07;;;;;;;24.33;8.73;;;;;;;0.98;nan;103084.59;5062166;28;20067;-48
2021/10/24 03:24:33;;;;;;;23.98;7.95;;;;;;;0.84;nan;103085.72;5063114;28;20023;-50
2021/10/24 03:26:58;;;;;;;21.65;7.45;;;;;;;0.98;nan;103091.66;5058837;28;20040;-47
2021/10/24 03:29:24;;;;;;;20.45;8.57;;;;;;;1.11;nan;103084.41;5061029;28;20032;-49
2021/10/24 03:31:49;;;;;;;18.90;7.63;;;;;;;1.27;nan;103084.78;5059766;28;20028;-48
2021/10/24 03:34:15;;;;;;;16.50;7.80;;;;;;;1.39;nan;103088.19;5061359;28;20028;-48
2021/10/24 03:36:41;;;;;;;16.75;7.05;;;;;;;1.43;nan;103087.78;5061907;28;20081;-49
2021/10/24 03:39:06;;;;;;;20.75;7.07;;;;;;;1.57;nan;103091.06;5060633;28;20024;-48
2021/10/24 03:41:31;;;;;;;15.30;6.72;;;;;;;1.64;nan;103097.50;5055506;28;20016;-51
2021/10/24 03:43:57;;;;;;;12.60;5.13;;;;;;;1.64;nan;103103.63;5059369;28;20165;-48
2021/10/24 03:46:22;;;;;;;13.05;6.25;;;;;;;1.75;nan;103100.03;5058625;28;20033;-50
2021/10/24 03:48:48;;;;;;;19.77;7.82;;;;;;;1.76;nan;103102.53;5059981;28;20043;-48
2021/10/24 03:51:13;;;;;;;18.38;9.02;;;;;;;1.82;nan;103109.13;5058960;28;20028;-48
2021/10/24 03:53:39;;;;;;;17.20;8.18;;;;;;;1.92;nan;103110.00;5057321;28;20032;-49
2021/10/24 03:56:04;;;;;;;12.00;6.88;;;;;;;2.02;nan;103110.88;5060346;28;20024;-49
2021/10/24 03:58:30;;;;;;;17.40;7.65;;;;;;;2.05;nan;103118.53;5060517;28;20024;-48
2021/10/24 04:00:55;;;;;;;18.05;8.40;;;;;;;2.04;nan;103116.03;5059301;28;20032;-50
2021/10/24 04:03:21;;;;;;;23.90;8.63;;;;;;;2.18;nan;103106.88;5061790;28;20435;-49
2021/10/24 04:05:49;;;;;;;14.95;7.40;;;;;;;2.24;nan;103107.16;5058367;28;20026;-47
2021/10/24 04:08:15;;;;;;;16.80;7.60;;;;;;;2.27;nan;103116.63;5059651;28;20056;-47
2021/10/24 04:10:40;;;;;;;16.88;7.25;;;;;;;2.33;nan;103118.72;5055430;28;20390;-47
2021/10/24 04:13:06;;;;;;;17.42;7.05;;;;;;;2.41;nan;103110.97;5060415;28;20020;-48
2021/10/24 04:15:32;;;;;;;20.70;9.32;;;;;;;2.46;nan;103105.25;5059127;28;20071;-49
2021/10/24 04:17:57;;;;;;;19.40;8.73;;;;;;;2.44;nan;103115.97;5042090;28;21011;-48
2021/10/24 04:20:23;;;;;;;16.27;8.35;;;;;;;2.53;nan;103115.19;5061507;28;20083;-48
2021/10/24 04:22:50;;;;;;;23.50;8.85;;;;;;;2.58;nan;103114.75;5057769;28;20078;-48
2021/10/24 04:25:16;;;;;;;21.23;8.43;;;;;;;2.59;nan;103119.06;5060778;28;20020;-48
2021/10/24 04:27:42;;;;;;;21.58;8.90;;;;;;;2.69;nan;103104.88;5056559;28;20372;-48
2021/10/24 04:30:09;;;;;;;17.35;9.23;;;;;;;2.67;nan;103109.47;5058101;28;20031;-49
2021/10/24 04:32:36;;;;;;;19.08;8.82;;;;;;;2.77;nan;103114.78;5058324;28;20387;-48
2021/10/24 04:35:02;;;;;;;18.77;8.88;;;;;;;2.80;nan;103108.34;5061423;28;20740;-48
2021/10/24 04:37:28;;;;;;;22.80;8.40;;;;;;;2.84;nan;103105.28;5058225;28;20482;-48
2021/10/24 04:39:53;;;;;;;19.77;9.20;;;;;;;2.87;nan;103106.81;5057401;28;20067;-48
2021/10/24 04:42:19;;;;;;;20.65;8.45;;;;;;;2.92;nan;103101.97;5061339;28;20489;-48
2021/10/24 04:44:44;;;;;;;17.52;8.25;;;;;;;2.95;nan;103101.66;5057634;28;20143;-48
2021/10/24 04:47:10;;;;;;;20.75;8.77;;;;;;;2.99;nan;103101.25;5058548;28;20074;-48
2021/10/24 04:49:35;;;;;;;15.23;6.68;;;;;;;3.01;nan;103111.69;5056643;28;20475;-48
2021/10/24 04:52:01;;;;;;;21.98;7.90;;;;;;;3.02;nan;103113.38;5043431;28;20034;-48
2021/10/24 04:54:26;;;;;;;17.23;8.00;;;;;;;3.06;nan;103106.00;5058818;28;20477;-48
2021/10/24 04:56:52;;;;;;;16.25;8.32;;;;;;;3.06;nan;103108.66;5059461;28;20047;-48
2021/10/24 04:59:19;;;;;;;9.82;6.88;;;;;;;3.10;nan;103110.88;5060855;28;20607;-48
2021/10/24 05:01:45;;;;;;;18.10;7.30;;;;;;;3.13;nan;103115.03;5056730;28;20053;-48
2021/10/24 05:04:11;;;;;;;15.77;7.03;;;;;;;3.15;nan;103116.56;5059752;28;20016;-48
2021/10/24 05:06:38;;;;;;;17.48;7.78;;;;;;;3.12;nan;103114.22;5058484;28;20474;-49
2021/10/24 05:09:04;;;;;;;15.00;8.25;;;;;;;3.13;nan;103118.53;5057091;28;20028;-49
2021/10/24 05:11:29;;;;;;;18.90;8.38;;;;;;;3.18;nan;103116.28;5060979;28;20639;-48
2021/10/24 05:13:55;;;;;;;15.23;6.07;;;;;;;3.24;nan;103128.97;5057982;28;20033;-48
2021/10/24 05:16:21;;;;;;;18.95;7.15;;;;;;;3.22;nan;103120.31;5057191;28;20036;-48
2021/10/24 05:18:46;;;;;;;17.60;7.43;;;;;;;3.28;nan;103125.06;5056344;28;21011;-48
2021/10/24 05:21:12;;;;;;;15.85;7.30;;;;;;;3.31;nan;103116.81;5061342;28;20020;-48
2021/10/24 05:23:37;;;;;;;19.42;7.07;;;;;;;3.34;nan;103118.34;5058942;28;20107;-48
2021/10/24 05:26:04;;;;;;;14.98;7.18;;;;;;;3.40;nan;103117.78;5062380;28;20046;-51
2021/10/24 05:28:33;;;;;;;13.50;6.78;;;;;;;3.42;nan;103115.00;5063420;28;20024;-48
2021/10/24 05:30:59;;;;;;;14.00;7.25;;;;;;;3.44;nan;103116.53;5063132;28;20037;-48
2021/10/24 05:33:24;;;;;;;12.93;7.03;;;;;;;3.44;nan;103118.34;5061536;28;20025;-48
2021/10/24 05:35:52;;;;;;;18.48;8.30;;;;;;;3.43;nan;103116.69;5063687;28;20475;-48
2021/10/24 05:38:17;;;;;;;15.73;7.43;;;;;;;3.45;nan;103112.06;5063327;28;20025;-48
2021/10/24 05:40:43;;;;;;;18.05;7.00;;;;;;;3.51;nan;103114.97;5060851;28;20051;-48
2021/10/24 05:43:08;;;;;;;16.27;7.75;;;;;;;3.53;nan;103109.53;5064131;28;20027;-49
2021/10/24 05:45:36;;;;;;;15.82;7.80;;;;;;;3.51;nan;103114.13;5063349;28;20028;-50
2021/10/24 05:48:01;;;;;;;17.52;7.68;;;;;;;3.55;nan;103115.50;5062203;28;20119;-48
2021/10/24 05:50:27;;;;;;;13.20;7.38;;;;;;;3.53;nan;103117.47;5064610;28;20048;-48
2021/10/24 05:52:52;;;;;;;13.20;7.22;;;;;;;3.60;nan;103113.28;5062313;28;20032;-49
2021/10/24 05:55:18;;;;;;;11.65;6.75;;;;;;;3.63;nan;103116.47;5064049;28;20035;-48
2021/10/24 05:57:44;;;;;;;11.48;6.60;;;;;;;3.72;nan;103117.41;5059447;28;20272;-48
2021/10/24 06:00:10;;;;;;;15.98;7.43;;;;;;;3.76;nan;103115.28;5059086;28;20024;-50
2021/10/24 06:02:36;;;;;;;15.73;7.85;;;;;;;3.71;nan;103123.69;5061219;28;20180;-48
2021/10/24 06:05:01;;;;;;;15.32;7.10;;;;;;;3.70;nan;103115.88;5059319;28;20387;-49
2021/10/24 06:07:27;;;;;;;13.20;7.28;;;;;;;3.73;nan;103118.25;5058889;28;20379;-48
2021/10/24 06:10:00;;;;;;;16.88;8.18;;;;;;;3.75;nan;103121.59;5057045;28;20437;-48
2021/10/24 06:12:41;;;;;;;14.10;7.57;;;;;;;3.71;nan;103126.34;5058642;28;20490;-50
2021/10/24 06:15:09;;;;;;;15.10;7.95;;;;;;;3.79;nan;103123.00;5060802;28;20033;-48
2021/10/24 06:17:35;;;;;;;10.88;6.50;;;;;;;3.82;nan;103123.53;5059490;28;20032;-49
2021/10/24 06:20:01;;;;;;;19.60;7.80;;;;;;;3.91;nan;103132.41;5060060;28;20024;-49
2021/10/24 06:22:27;;;;;;;14.60;6.78;;;;;;;3.98;nan;103130.03;5052077;28;20031;-48
2021/10/24 06:24:53;;;;;;;15.65;7.65;;;;;;;4.06;nan;103130.94;5062898;28;20028;-48
2021/10/24 06:27:19;;;;;;;14.25;7.47;;;;;;;4.13;nan;103134.72;5058514;28;20017;-48
2021/10/24 06:29:44;;;;;;;19.98;8.70;;;;;;;4.16;nan;103133.56;5059026;28;20078;-49
2021/10/24 06:32:10;;;;;;;16.77;7.28;;;;;;;4.25;nan;103130.84;5038058;28;20078;-50
2021/10/24 06:34:35;;;;;;;17.90;9.10;;;;;;;4.36;nan;103140.44;5055333;28;20035;-50
2021/10/24 06:37:01;;;;;;;18.55;9.30;;;;;;;4.45;nan;103136.88;5058264;28;20393;-51
2021/10/24 06:39:26;;;;;;;13.75;7.70;;;;;;;4.53;nan;103138.81;5058741;28;20021;-49
2021/10/24 06:41:52;;;;;;;15.13;8.05;;;;;;;4.62;nan;103143.19;5058940;28;20050;-49
2021/10/24 06:44:17;;;;;;;15.30;8.73;;;;;;;4.72;nan;103148.47;5058863;28;20521;-50
2021/10/24 06:46:43;;;;;;;17.73;9.68;;;;;;;4.78;nan;103153.16;5057888;28;20335;-49
2021/10/24 06:49:09;;;;;;;14.70;8.30;;;;;;;4.86;nan;103150.59;5055602;28;20060;-49
2021/10/24 06:51:34;;;;;;;15.77;8.27;;;;;;;4.94;nan;103163.94;5055349;28;20395;-51
2021/10/24 06:54:00;;;;;;;16.58;8.48;;;;;;;5.01;nan;103159.69;5060820;28;20028;-50
2021/10/24 06:56:25;;;;;;;15.15;6.75;;;;;;;5.08;nan;103162.59;5055975;28;20032;-51
2021/10/24 06:58:51;;;;;;;14.30;8.45;;;;;;;5.15;nan;103167.13;5053258;28;20485;-52
2021/10/24 07:01:16;;;;;;;14.00;8.63;;;;;;;5.25;nan;103166.22;5051214;28;20040;-48
2021/10/24 07:03:42;;;;;;;17.15;8.35;;;;;;;5.32;nan;103164.59;5055272;28;20035;-50
2021/10/24 07:06:07;;;;;;;17.95;7.68;;;;;;;5.36;nan;103163.28;5055261;28;20119;-49
2021/10/24 07:08:33;;;;;;;14.43;8.38;;;;;;;5.38;nan;103166.63;5059055;28;20115;-53
2021/10/24 07:10:58;;;;;;;14.27;7.63;;;;;;;5.41;nan;103166.34;5058880;28;20077;-49
2021/10/24 07:13:24;;;;;;;13.57;7.40;;;;;;;5.47;nan;103157.75;5053800;28;20036;-51
2021/10/24 07:15:50;;;;;;;12.38;7.43;;;;;;;5.50;nan;103162.75;5053623;28;20077;-49
2021/10/24 07:18:15;;;;;;;14.23;7.70;;;;;;;5.49;nan;103169.03;5059561;28;20036;-50
2021/10/24 07:20:41;;;;;;;16.55;8.45;;;;;;;5.60;nan;103167.97;5055892;28;20340;-49
2021/10/24 07:23:06;;;;;;;19.15;8.25;;;;;;;5.58;nan;103173.44;5058509;28;20036;-50
2021/10/24 07:25:32;;;;;;;13.95;7.95;;;;;;;5.62;nan;103166.81;5058567;28;20052;-49
2021/10/24 07:27:57;;;;;;;15.02;8.07;;;;;;;5.56;nan;103163.94;5053669;28;20500;-49
2021/10/24 07:30:23;;;;;;;14.35;7.35;;;;;;;5.63;nan;103165.00;5057308;28;20562;-52
2021/10/24 07:32:48;;;;;;;14.40;9.25;;;;;;;5.73;nan;103166.53;5059291;28;20421;-49
2021/10/24 07:35:14;;;;;;;15.63;8.07;;;;;;;5.81;nan;103172.91;5043760;28;20111;-49
2021/10/24 07:37:40;;;;;;;15.43;8.80;;;;;;;5.83;nan;103178.91;5026717;28;20028;-50
2021/10/24 07:40:08;;;;;;;21.15;8.93;;;;;;;5.86;nan;103173.28;5054317;28;20034;-49
2021/10/24 07:42:33;;;;;;;22.02;8.88;;;;;;;5.87;nan;103177.59;5054277;28;20052;-50
2021/10/24 07:44:59;;;;;;;15.60;8.70;;;;;;;5.90;nan;103177.31;5046020;28;20542;-52
2021/10/24 07:47:30;;;;;;;20.63;9.27;;;;;;;5.93;nan;103172.53;5052706;28;20031;-49
2021/10/24 07:49:56;;;;;;;14.77;9.88;;;;;;;6.06;nan;103172.09;5053050;28;20101;-51
2021/10/24 07:52:22;;;;;;;16.02;9.52;;;;;;;6.09;nan;103177.09;5054901;28;20060;-50
2021/10/24 07:54:48;;;;;;;15.93;10.52;;;;;;;6.20;nan;103174.16;5038501;28;20033;-52
2021/10/24 07:57:13;;;;;;;16.77;9.60;;;;;;;6.32;nan;103177.38;5052382;28;20309;-51
2021/10/24 07:59:39;;;;;;;16.25;10.27;;;;;;;6.46;nan;103174.06;5054806;28;20027;-50
2021/10/24 08:02:04;;;;;;;14.55;9.00;;;;;;;6.56;nan;103179.28;5051782;28;20029;-51
2021/10/24 08:04:33;;;;;;;15.73;9.38;;;;;;;6.65;nan;103175.66;5032818;28;20035;-51
2021/10/24 08:07:00;;;;;;;16.65;10.18;;;;;;;6.68;nan;103183.31;5052067;28;20468;-49
2021/10/24 08:09:26;;;;;;;14.23;8.63;;;;;;;6.56;nan;103177.44;5053909;28;20028;-50
2021/10/24 08:11:51;;;;;;;15.45;9.27;;;;;;;6.76;nan;103178.00;5055062;28;20020;-49
2021/10/24 08:14:17;;;;;;;13.38;8.55;;;;;;;6.92;nan;103175.34;5057678;28;20490;-50
2021/10/24 08:16:43;;;;;;;13.10;8.48;;;;;;;7.10;nan;103175.22;5053508;28;20844;-52
2021/10/24 08:19:09;;;;;;;12.32;8.50;;;;;;;7.19;nan;103176.88;5055196;28;20067;-49
2021/10/24 08:21:35;;;;;;;15.48;10.15;;;;;;;7.32;nan;103170.19;5056475;28;20016;-49
2021/10/24 08:24:01;;;;;;;18.08;9.75;;;;;;;7.32;nan;103176.38;5036503;28;20052;-52
2021/10/24 08:26:27;;;;;;;16.17;9.93;;;;;;;7.39;nan;103171.22;5056871;28;20024;-53
2021/10/24 08:28:52;;;;;;;14.80;9.25;;;;;;;7.49;nan;103171.84;5052373;28;20028;-50
2021/10/24 08:31:24;;;;;;;18.30;9.43;;;;;;;7.66;nan;103162.84;5057206;28;20501;-51
2021/10/24 08:33:54;;;;;;;16.20;8.93;;;;;;;7.81;nan;103166.47;5055788;28;20032;-50
2021/10/24 08:36:20;;;;;;;13.95;9.27;;;;;;;7.93;nan;103166.94;5049026;28;20110;-50
2021/10/24 08:38:46;;;;;;;14.07;9.43;;;;;;;7.97;nan;103159.44;5052842;28;20766;-52
2021/10/24 08:41:12;;;;;;;17.42;9.68;;;;;;;7.98;nan;103156.59;5048225;28;20246;-49
2021/10/24 08:43:40;;;;;;;14.90;9.43;;;;;;;7.94;nan;103160.59;5035539;28;20100;-52
2021/10/24 08:46:07;;;;;;;17.10;8.70;;;;;;;8.04;nan;103158.56;5053682;28;20082;-52
2021/10/24 08:48:34;;;;;;;13.00;9.43;;;;;;;8.14;nan;103153.84;5055025;28;20032;-52
2021/10/24 08:51:01;;;;;;;17.75;9.40;;;;;;;8.35;nan;103155.13;5051570;28;21935;-50
2021/10/24 08:53:28;;;;;;;16.00;8.55;;;;;;;8.50;nan;103148.03;5051630;28;20059;-51
2021/10/24 08:55:55;;;;;;;14.90;8.52;;;;;;;8.75;nan;103149.53;5053209;28;20024;-49
2021/10/24 08:58:21;;;;;;;14.65;8.50;;;;;;;8.77;nan;103152.03;5058022;28;20042;-52
2021/10/24 09:00:48;;;;;;;11.45;8.27;;;;;;;8.93;nan;103143.06;5059107;28;20054;-51
2021/10/24 09:03:13;;;;;;;16.33;8.32;;;;;;;9.00;nan;103147.53;5057889;28;20371;-51
2021/10/24 09:05:43;;;;;;;14.48;8.00;;;;;;;9.24;nan;103138.47;5059278;28;20035;-50
2021/10/24 09:08:21;;;;;;;11.02;7.57;;;;;;;9.47;nan;103148.28;5058939;28;20568;-52
2021/10/24 09:10:49;;;;;;;11.02;7.57;;;;;;;9.73;nan;103146.03;5054820;28;20078;-51
2021/10/24 09:13:21;;;;;;;13.18;7.35;;;;;;;9.87;nan;103139.81;5059162;28;20052;-50
2021/10/24 09:15:47;;;;;;;13.50;7.60;;;;;;;10.12;nan;103134.19;5036266;28;20040;-50
2021/10/24 09:18:13;;;;;;;8.07;6.55;;;;;;;10.21;nan;103135.75;5053770;28;20028;-51
2021/10/24 09:20:40;;;;;;;12.50;6.75;;;;;;;10.41;nan;103144.03;5055159;28;20036;-52
2021/10/24 09:23:07;;;;;;;12.18;6.13;;;;;;;10.43;nan;103132.13;5059605;28;20020;-49
2021/10/24 09:25:33;;;;;;;12.25;6.03;;;;;;;10.67;nan;103136.31;5054575;28;20450;-51
2021/10/24 09:28:00;;;;;;;10.27;6.20;;;;;;;10.89;nan;103134.47;5035484;28;20032;-51
2021/10/24 09:30:31;;;;;;;10.27;6.20;;;;;;;11.02;nan;103137.28;5055294;28;20063;-52
2021/10/24 09:33:04;;;;;;;9.48;5.50;;;;;;;11.10;nan;103134.44;5053598;28;20032;-52
2021/10/24 09:35:31;;;;;;;9.25;5.43;;;;;;;11.05;nan;103138.72;5056272;28;20483;-50
2021/10/24 09:37:58;;;;;;;7.82;4.90;;;;;;;10.75;nan;103138.03;5056632;28;20020;-50
2021/10/24 09:40:34;;;;;;;7.35;4.53;;;;;;;10.63;nan;103135.03;5055918;28;20167;-52
2021/10/24 09:43:22;;;;;;;8.75;4.10;;;;;;;10.74;nan;103133.69;5056374;28;20066;-50
2021/10/24 09:45:57;;;;;;;12.25;4.90;;;;;;;10.55;nan;103132.47;5049888;28;20031;-53
2021/10/24 09:48:24;;;;;;;8.77;3.70;;;;;;;10.68;nan;103131.78;5054040;28;20032;-52
2021/10/24 09:50:53;;;;;;;9.00;3.25;;;;;;;10.63;nan;103134.22;5051169;28;20391;-51
2021/10/24 09:53:26;;;;;;;11.18;4.45;;;;;;;10.70;nan;103129.72;5051733;28;20108;-50
2021/10/24 09:55:54;;;;;;;8.10;3.22;;;;;;;10.79;nan;103140.16;5054572;28;21436;-52
2021/10/24 09:58:21;;;;;;;9.13;3.83;;;;;;;10.99;nan;103134.97;5058330;28;20473;-52
2021/10/24 10:00:47;;;;;;;6.72;3.40;;;;;;;11.11;nan;103129.91;5053994;28;20029;-53
2021/10/24 10:03:18;;;;;;;9.40;3.50;;;;;;;11.12;nan;103132.38;5055284;28;20044;-52
2021/10/24 10:05:45;;;;;;;7.05;3.60;;;;;;;11.15;nan;103134.72;5055546;28;20039;-52
2021/10/24 10:08:19;;;;;;;12.00;2.80;;;;;;;11.20;nan;103129.59;5056531;28;20029;-52
2021/10/24 10:10:49;;;;;;;;;;;;;;;11.23;nan;103128.34;5055586;28;20376;-52
2021/10/24 10:13:20;;;;;;;4.03;2.65;;;;;;;11.19;nan;103129.78;5055987;28;19970;-53
2021/10/24 10:15:48;;;;;;;8.57;2.70;;;;;;;11.34;nan;103121.66;5055748;28;20036;-53
2021/10/24 10:18:14;;;;;;;7.13;2.20;;;;;;;11.35;nan;103116.06;5060191;28;20382;-53
2021/10/24 10:20:48;;;;;;;6.25;2.33;;;;;;;11.30;nan;103107.75;5055765;28;20032;-52
2021/10/24 10:23:14;;;;;;;8.80;2.50;;;;;;;11.38;nan;103110.31;5055667;28;20517;-49
2021/10/24 10:25:42;;;;;;;7.95;2.30;;;;;;;11.41;nan;103122.50;5056617;28;20501;-52
2021/10/24 10:28:11;;;;;;;7.50;2.45;;;;;;;11.33;nan;103109.25;5059843;28;20032;-53
2021/10/24 10:30:45;;;;;;;6.72;2.35;;;;;;;11.49;nan;103106.28;5060544;28;20277;-51
2021/10/24 10:33:35;;;;;;;8.23;1.95;;;;;;;11.57;nan;103106.09;5060060;28;20471;-51
2021/10/24 10:36:03;;;;;;;5.57;1.80;;;;;;;11.73;nan;103105.78;5056911;28;20091;-52
2021/10/24 10:38:39;;;;;;;8.35;2.85;;;;;;;11.97;nan;103100.97;5039250;28;20043;-51
2021/10/24 10:41:10;;;;;;;3.13;1.85;;;;;;;12.04;nan;103099.16;5058711;28;20032;-52
2021/10/24 10:43:36;;;;;;;9.02;2.65;;;;;;;12.09;nan;103097.50;5056539;28;20025;-53
2021/10/24 10:46:03;;;;;;;7.75;2.50;;;;;;;12.08;nan;103093.16;5054334;28;20028;-50
2021/10/24 10:48:40;;;;;;;4.40;2.00;;;;;;;12.20;nan;103093.41;5055265;28;20659;-50
2021/10/24 10:51:23;;;;;;;8.05;2.47;;;;;;;12.51;nan;103087.50;5056942;28;20024;-50
2021/10/24 10:54:03;;;;;;;11.68;2.83;;;;;;;12.76;nan;103081.56;5056825;28;20029;-52
2021/10/24 10:56:29;;;;;;;6.85;2.17;;;;;;;12.96;nan;103080.53;5037651;28;20063;-50
2021/10/24 10:58:59;;;;;;;5.32;2.20;;;;;;;13.15;nan;103086.94;5051710;28;20387;-53
2021/10/24 11:01:28;;;;;;;5.30;2.13;;;;;;;13.05;nan;103085.69;5056712;28;20032;-50
2021/10/24 11:04:14;;;;;;;7.45;1.90;;;;;;;12.94;nan;103082.59;5055574;28;20028;-49
2021/10/24 11:06:40;;;;;;;5.75;1.90;;;;;;;12.96;nan;103077.00;5052190;28;20036;-52
2021/10/24 11:09:32;;;;;;;5.38;1.70;;;;;;;13.09;nan;103076.16;5054900;28;20058;-52
2021/10/24 11:11:58;;;;;;;3.45;1.70;;;;;;;13.64;nan;103079.41;5053918;28;20486;-51
2021/10/24 11:14:45;;;;;;;6.07;1.90;;;;;;;15.17;nan;103064.78;5056728;28;20032;-52
2021/10/24 11:17:34;;;;;;;6.65;2.35;;;;;;;17.11;nan;103073.69;5057577;28;20032;-50
2021/10/24 11:20:38;;;;;;;2.88;1.42;;;;;;;17.49;nan;103059.63;5053929;28;20370;-53
2021/10/24 11:23:05;;;;;;;8.00;1.83;;;;;;;19.39;nan;103054.59;5054729;28;20491;-49
2021/10/24 11:25:34;;;;;;;7.55;1.65;;;;;;;19.43;nan;103053.84;5057682;28;20040;-52
2021/10/24 11:28:08;;;;;;;5.85;1.67;;;;;;;19.17;nan;103043.69;5053438;28;20020;-50
2021/10/24 11:30:35;;;;;;;2.50;1.38;;;;;;;18.71;nan;103048.44;5056102;28;20394;-53
2021/10/24 11:33:02;;;;;;;5.53;1.73;;;;;;;19.95;nan;103044.44;5051860;28;20039;-51
2021/10/24 11:35:27;;;;;;;3.38;2.05;;;;;;;20.13;nan;103050.34;5056501;28;20029;-50
2021/10/24 11:37:58;;;;;;;3.53;1.70;;;;;;;19.64;nan;103045.97;5055000;28;20051;-52
2021/10/24 11:40:31;;;;;;;7.18;1.67;;;;;;;21.15;nan;103040.28;5054062;28;20024;-51